sensor_id;sensor_type;location;lat;lon;timestamp;P1;durP1;ratioP1;P2;durP2;ratioP2
13461;SDS011;6803;45.264;5.468;2023-07-13T00:00:52;7.83;;;4.50;;
13461;SDS011;6803;45.264;5.468;2023-07-13T00:03:24;5.37;;;3.40;;
13461;SDS011;6803;45.264;5.468;2023-07-13T00:05:59;14.47;;;5.27;;
13461;SDS011;6803;45.264;5.468;2023-07-13T00:08:31;8.93;;;3.47;;
13461;SDS011;6803;45.264;5.468;2023-07-13T00:11:02;8.50;;;3.37;;
13461;SDS011;6803;45.264;5.468;2023-07-13T00:13:35;7.92;;;3.35;;
13461;SDS011;6803;45.264;5.468;2023-07-13T00:16:07;5.00;;;3.00;;
13461;SDS011;6803;45.264;5.468;2023-07-13T00:18:40;4.40;;;3.13;;
13461;SDS011;6803;45.264;5.468;2023-07-13T00:21:11;8.73;;;3.20;;
13461;SDS011;6803;45.264;5.468;2023-07-13T00:23:42;8.40;;;3.40;;
13461;SDS011;6803;45.264;5.468;2023-07-13T00:26:13;5.77;;;3.20;;
13461;SDS011;6803;45.264;5.468;2023-07-13T00:28:45;10.63;;;3.43;;
13461;SDS011;6803;45.264;5.468;2023-07-13T00:31:16;6.00;;;3.50;;
13461;SDS011;6803;45.264;5.468;2023-07-13T00:33:47;7.53;;;3.00;;
13461;SDS011;6803;45.264;5.468;2023-07-13T00:36:19;6.47;;;3.47;;
13461;SDS011;6803;45.264;5.468;2023-07-13T00:38:50;7.05;;;3.85;;
13461;SDS011;6803;45.264;5.468;2023-07-13T00:41:21;9.73;;;3.73;;
13461;SDS011;6803;45.264;5.468;2023-07-13T00:43:52;4.23;;;2.63;;
13461;SDS011;6803;45.264;5.468;2023-07-13T00:46:24;4.62;;;2.30;;
13461;SDS011;6803;45.264;5.468;2023-07-13T00:48:57;2.90;;;1.90;;
13461;SDS011;6803;45.264;5.468;2023-07-13T00:51:31;5.43;;;2.30;;
13461;SDS011;6803;45.264;5.468;2023-07-13T00:54:05;2.70;;;2.10;;
13461;SDS011;6803;45.264;5.468;2023-07-13T00:56:38;5.03;;;1.90;;
13461;SDS011;6803;45.264;5.468;2023-07-13T00:59:10;4.97;;;1.80;;
13461;SDS011;6803;45.264;5.468;2023-07-13T01:01:44;6.37;;;2.00;;
13461;SDS011;6803;45.264;5.468;2023-07-13T01:04:15;4.87;;;2.17;;
13461;SDS011;6803;45.264;5.468;2023-07-13T01:06:47;5.53;;;1.93;;
13461;SDS011;6803;45.264;5.468;2023-07-13T01:09:18;4.67;;;1.90;;
13461;SDS011;6803;45.264;5.468;2023-07-13T01:11:50;4.43;;;2.10;;
13461;SDS011;6803;45.264;5.468;2023-07-13T01:14:20;5.20;;;1.87;;
13461;SDS011;6803;45.264;5.468;2023-07-13T01:16:51;2.63;;;1.80;;
13461;SDS011;6803;45.264;5.468;2023-07-13T01:19:28;4.07;;;1.93;;
13461;SDS011;6803;45.264;5.468;2023-07-13T01:22:05;1.97;;;1.50;;
13461;SDS011;6803;45.264;5.468;2023-07-13T01:24:39;3.30;;;2.00;;
13461;SDS011;6803;45.264;5.468;2023-07-13T01:27:13;3.77;;;1.70;;
13461;SDS011;6803;45.264;5.468;2023-07-13T01:29:46;4.92;;;2.00;;
13461;SDS011;6803;45.264;5.468;2023-07-13T01:32:19;1.47;;;1.30;;
13461;SDS011;6803;45.264;5.468;2023-07-13T01:34:53;1.97;;;1.50;;
13461;SDS011;6803;45.264;5.468;2023-07-13T01:37:24;8.00;;;1.90;;
13461;SDS011;6803;45.264;5.468;2023-07-13T01:39:58;1.67;;;1.57;;
13461;SDS011;6803;45.264;5.468;2023-07-13T01:42:29;5.43;;;1.50;;
13461;SDS011;6803;45.264;5.468;2023-07-13T01:45:00;2.40;;;1.20;;
13461;SDS011;6803;45.264;5.468;2023-07-13T01:47:31;2.80;;;1.25;;
13461;SDS011;6803;45.264;5.468;2023-07-13T01:50:03;2.80;;;1.63;;
13461;SDS011;6803;45.264;5.468;2023-07-13T01:52:35;1.87;;;1.50;;
13461;SDS011;6803;45.264;5.468;2023-07-13T01:55:07;2.67;;;1.27;;
13461;SDS011;6803;45.264;5.468;2023-07-13T01:57:38;1.90;;;1.20;;
13461;SDS011;6803;45.264;5.468;2023-07-13T02:00:11;2.97;;;1.03;;
13461;SDS011;6803;45.264;5.468;2023-07-13T02:02:43;1.67;;;1.30;;
13461;SDS011;6803;45.264;5.468;2023-07-13T02:05:15;3.17;;;1.10;;
13461;SDS011;6803;45.264;5.468;2023-07-13T02:07:46;1.87;;;1.30;;
13461;SDS011;6803;45.264;5.468;2023-07-13T02:10:18;1.53;;;1.03;;
13461;SDS011;6803;45.264;5.468;2023-07-13T02:12:50;2.62;;;1.10;;
13461;SDS011;6803;45.264;5.468;2023-07-13T02:15:21;0.80;;;0.80;;
13461;SDS011;6803;45.264;5.468;2023-07-13T02:17:52;8.43;;;1.30;;
13461;SDS011;6803;45.264;5.468;2023-07-13T02:20:25;1.37;;;0.97;;
13461;SDS011;6803;45.264;5.468;2023-07-13T02:22:56;2.17;;;1.07;;
13461;SDS011;6803;45.264;5.468;2023-07-13T02:25:27;1.10;;;1.00;;
13461;SDS011;6803;45.264;5.468;2023-07-13T02:27:58;1.97;;;0.80;;
13461;SDS011;6803;45.264;5.468;2023-07-13T02:30:29;3.52;;;1.30;;
13461;SDS011;6803;45.264;5.468;2023-07-13T02:33:01;2.50;;;1.27;;
13461;SDS011;6803;45.264;5.468;2023-07-13T02:35:32;2.57;;;1.40;;
13461;SDS011;6803;45.264;5.468;2023-07-13T02:38:03;3.58;;;1.40;;
13461;SDS011;6803;45.264;5.468;2023-07-13T02:40:34;2.43;;;1.40;;
13461;SDS011;6803;45.264;5.468;2023-07-13T02:43:06;2.57;;;1.33;;
13461;SDS011;6803;45.264;5.468;2023-07-13T02:45:37;4.42;;;1.50;;
13461;SDS011;6803;45.264;5.468;2023-07-13T02:48:10;3.90;;;1.43;;
13461;SDS011;6803;45.264;5.468;2023-07-13T02:50:43;5.47;;;1.33;;
13461;SDS011;6803;45.264;5.468;2023-07-13T02:53:14;2.00;;;1.57;;
13461;SDS011;6803;45.264;5.468;2023-07-13T02:55:45;2.67;;;1.80;;
13461;SDS011;6803;45.264;5.468;2023-07-13T02:58:16;2.40;;;1.50;;
13461;SDS011;6803;45.264;5.468;2023-07-13T03:00:48;3.00;;;1.53;;
13461;SDS011;6803;45.264;5.468;2023-07-13T03:03:19;4.30;;;1.40;;
13461;SDS011;6803;45.264;5.468;2023-07-13T03:05:57;2.67;;;1.20;;
13461;SDS011;6803;45.264;5.468;2023-07-13T03:08:28;1.63;;;1.17;;
13461;SDS011;6803;45.264;5.468;2023-07-13T03:11:00;1.10;;;0.88;;
13461;SDS011;6803;45.264;5.468;2023-07-13T03:13:33;2.47;;;1.30;;
13461;SDS011;6803;45.264;5.468;2023-07-13T03:16:05;3.97;;;1.37;;
13461;SDS011;6803;45.264;5.468;2023-07-13T03:18:37;3.37;;;1.30;;
13461;SDS011;6803;45.264;5.468;2023-07-13T03:21:08;2.87;;;0.98;;
13461;SDS011;6803;45.264;5.468;2023-07-13T03:23:39;2.70;;;1.00;;
13461;SDS011;6803;45.264;5.468;2023-07-13T03:26:11;1.80;;;1.40;;
13461;SDS011;6803;45.264;5.468;2023-07-13T03:28:44;4.05;;;1.37;;
13461;SDS011;6803;45.264;5.468;2023-07-13T03:31:16;1.13;;;0.87;;
13461;SDS011;6803;45.264;5.468;2023-07-13T03:33:50;2.07;;;0.80;;
13461;SDS011;6803;45.264;5.468;2023-07-13T03:36:21;1.80;;;0.98;;
13461;SDS011;6803;45.264;5.468;2023-07-13T03:38:55;1.60;;;0.93;;
13461;SDS011;6803;45.264;5.468;2023-07-13T03:41:27;3.17;;;1.30;;
13461;SDS011;6803;45.264;5.468;2023-07-13T03:43:58;1.67;;;1.13;;
13461;SDS011;6803;45.264;5.468;2023-07-13T03:46:29;4.12;;;1.00;;
13461;SDS011;6803;45.264;5.468;2023-07-13T03:49:01;2.77;;;0.90;;
13461;SDS011;6803;45.264;5.468;2023-07-13T03:51:33;3.17;;;0.90;;
13461;SDS011;6803;45.264;5.468;2023-07-13T03:54:03;2.62;;;1.07;;
13461;SDS011;6803;45.264;5.468;2023-07-13T03:56:34;1.50;;;1.03;;
13461;SDS011;6803;45.264;5.468;2023-07-13T03:59:05;1.67;;;1.27;;
13461;SDS011;6803;45.264;5.468;2023-07-13T04:01:36;2.37;;;1.33;;
13461;SDS011;6803;45.264;5.468;2023-07-13T04:04:07;3.43;;;1.50;;
13461;SDS011;6803;45.264;5.468;2023-07-13T04:06:38;5.40;;;1.40;;
13461;SDS011;6803;45.264;5.468;2023-07-13T04:09:08;4.63;;;1.23;;
13461;SDS011;6803;45.264;5.468;2023-07-13T04:11:40;6.47;;;1.40;;
13461;SDS011;6803;45.264;5.468;2023-07-13T04:14:10;3.43;;;1.30;;
13461;SDS011;6803;45.264;5.468;2023-07-13T04:16:41;4.87;;;1.50;;
13461;SDS011;6803;45.264;5.468;2023-07-13T04:19:13;2.37;;;1.30;;
13461;SDS011;6803;45.264;5.468;2023-07-13T04:21:44;3.03;;;1.40;;
13461;SDS011;6803;45.264;5.468;2023-07-13T04:24:17;1.63;;;1.10;;
13461;SDS011;6803;45.264;5.468;2023-07-13T04:26:48;2.53;;;1.20;;
13461;SDS011;6803;45.264;5.468;2023-07-13T04:29:18;4.60;;;1.67;;
13461;SDS011;6803;45.264;5.468;2023-07-13T04:31:49;4.37;;;1.50;;
13461;SDS011;6803;45.264;5.468;2023-07-13T04:34:20;1.27;;;1.13;;
13461;SDS011;6803;45.264;5.468;2023-07-13T04:36:51;3.37;;;1.30;;
13461;SDS011;6803;45.264;5.468;2023-07-13T04:39:22;1.80;;;1.30;;
13461;SDS011;6803;45.264;5.468;2023-07-13T04:41:53;1.77;;;1.27;;
13461;SDS011;6803;45.264;5.468;2023-07-13T04:44:24;1.82;;;1.30;;
13461;SDS011;6803;45.264;5.468;2023-07-13T04:46:55;1.77;;;1.23;;
13461;SDS011;6803;45.264;5.468;2023-07-13T04:49:25;5.33;;;1.20;;
13461;SDS011;6803;45.264;5.468;2023-07-13T04:51:56;3.80;;;1.70;;
13461;SDS011;6803;45.264;5.468;2023-07-13T04:54:27;3.70;;;1.30;;
13461;SDS011;6803;45.264;5.468;2023-07-13T04:56:57;2.73;;;1.30;;
13461;SDS011;6803;45.264;5.468;2023-07-13T04:59:28;1.97;;;1.00;;
13461;SDS011;6803;45.264;5.468;2023-07-13T05:02:00;1.92;;;1.10;;
13461;SDS011;6803;45.264;5.468;2023-07-13T05:04:31;4.10;;;1.20;;
13461;SDS011;6803;45.264;5.468;2023-07-13T05:07:02;2.77;;;1.50;;
13461;SDS011;6803;45.264;5.468;2023-07-13T05:09:34;2.20;;;1.50;;
13461;SDS011;6803;45.264;5.468;2023-07-13T05:12:08;3.93;;;1.40;;
13461;SDS011;6803;45.264;5.468;2023-07-13T05:14:40;2.77;;;1.60;;
13461;SDS011;6803;45.264;5.468;2023-07-13T05:17:11;1.80;;;1.17;;
13461;SDS011;6803;45.264;5.468;2023-07-13T05:19:41;2.30;;;1.57;;
13461;SDS011;6803;45.264;5.468;2023-07-13T05:22:12;1.93;;;1.40;;
13461;SDS011;6803;45.264;5.468;2023-07-13T05:24:44;3.47;;;1.57;;
13461;SDS011;6803;45.264;5.468;2023-07-13T05:27:15;5.60;;;1.63;;
13461;SDS011;6803;45.264;5.468;2023-07-13T05:29:46;2.60;;;1.90;;
13461;SDS011;6803;45.264;5.468;2023-07-13T05:32:18;3.83;;;1.50;;
13461;SDS011;6803;45.264;5.468;2023-07-13T05:34:49;4.00;;;1.60;;
13461;SDS011;6803;45.264;5.468;2023-07-13T05:37:20;4.12;;;1.70;;
13461;SDS011;6803;45.264;5.468;2023-07-13T05:39:51;2.50;;;1.50;;
13461;SDS011;6803;45.264;5.468;2023-07-13T05:42:22;4.10;;;1.83;;
13461;SDS011;6803;45.264;5.468;2023-07-13T05:44:53;2.45;;;1.77;;
13461;SDS011;6803;45.264;5.468;2023-07-13T05:47:24;3.40;;;1.50;;
13461;SDS011;6803;45.264;5.468;2023-07-13T05:49:55;3.20;;;1.80;;
13461;SDS011;6803;45.264;5.468;2023-07-13T05:52:25;3.55;;;1.80;;
13461;SDS011;6803;45.264;5.468;2023-07-13T05:54:56;2.57;;;2.00;;
13461;SDS011;6803;45.264;5.468;2023-07-13T05:57:27;5.23;;;1.70;;
13461;SDS011;6803;45.264;5.468;2023-07-13T05:59:57;3.03;;;1.97;;
13461;SDS011;6803;45.264;5.468;2023-07-13T06:02:28;3.55;;;2.15;;
13461;SDS011;6803;45.264;5.468;2023-07-13T06:04:59;4.17;;;2.00;;
13461;SDS011;6803;45.264;5.468;2023-07-13T06:07:30;3.37;;;1.80;;
13461;SDS011;6803;45.264;5.468;2023-07-13T06:10:01;4.23;;;2.10;;
13461;SDS011;6803;45.264;5.468;2023-07-13T06:12:32;4.63;;;2.10;;
13461;SDS011;6803;45.264;5.468;2023-07-13T06:15:03;3.33;;;2.20;;
13461;SDS011;6803;45.264;5.468;2023-07-13T06:17:36;3.17;;;1.90;;
13461;SDS011;6803;45.264;5.468;2023-07-13T06:20:08;2.33;;;1.60;;
13461;SDS011;6803;45.264;5.468;2023-07-13T06:22:39;4.10;;;1.87;;
13461;SDS011;6803;45.264;5.468;2023-07-13T06:25:09;3.63;;;1.93;;
13461;SDS011;6803;45.264;5.468;2023-07-13T06:27:40;3.77;;;1.98;;
13461;SDS011;6803;45.264;5.468;2023-07-13T06:30:12;3.77;;;2.20;;
13461;SDS011;6803;45.264;5.468;2023-07-13T06:32:43;2.40;;;1.93;;
13461;SDS011;6803;45.264;5.468;2023-07-13T06:35:14;3.65;;;2.27;;
13461;SDS011;6803;45.264;5.468;2023-07-13T06:37:46;3.20;;;1.90;;
13461;SDS011;6803;45.264;5.468;2023-07-13T06:40:17;5.97;;;2.00;;
13461;SDS011;6803;45.264;5.468;2023-07-13T06:42:49;4.97;;;2.00;;
13461;SDS011;6803;45.264;5.468;2023-07-13T06:45:20;3.87;;;2.40;;
13461;SDS011;6803;45.264;5.468;2023-07-13T06:47:50;2.93;;;2.33;;
13461;SDS011;6803;45.264;5.468;2023-07-13T06:50:21;6.00;;;2.20;;
13461;SDS011;6803;45.264;5.468;2023-07-13T06:52:52;5.67;;;2.02;;
13461;SDS011;6803;45.264;5.468;2023-07-13T06:55:23;2.77;;;2.00;;
13461;SDS011;6803;45.264;5.468;2023-07-13T06:57:53;2.37;;;1.90;;
13461;SDS011;6803;45.264;5.468;2023-07-13T07:00:24;4.23;;;1.83;;
13461;SDS011;6803;45.264;5.468;2023-07-13T07:02:55;3.30;;;1.80;;
13461;SDS011;6803;45.264;5.468;2023-07-13T07:05:26;2.97;;;1.60;;
13461;SDS011;6803;45.264;5.468;2023-07-13T07:07:57;5.23;;;2.10;;
13461;SDS011;6803;45.264;5.468;2023-07-13T07:10:29;2.20;;;1.50;;
13461;SDS011;6803;45.264;5.468;2023-07-13T07:13:00;4.20;;;1.73;;
13461;SDS011;6803;45.264;5.468;2023-07-13T07:15:32;2.23;;;1.80;;
13461;SDS011;6803;45.264;5.468;2023-07-13T07:18:11;2.20;;;1.50;;
13461;SDS011;6803;45.264;5.468;2023-07-13T07:20:42;4.43;;;1.70;;
13461;SDS011;6803;45.264;5.468;2023-07-13T07:23:13;4.03;;;1.70;;
13461;SDS011;6803;45.264;5.468;2023-07-13T07:25:44;1.80;;;1.33;;
13461;SDS011;6803;45.264;5.468;2023-07-13T07:28:15;4.25;;;2.20;;
13461;SDS011;6803;45.264;5.468;2023-07-13T07:30:48;3.50;;;1.70;;
13461;SDS011;6803;45.264;5.468;2023-07-13T07:33:22;2.20;;;1.30;;
13461;SDS011;6803;45.264;5.468;2023-07-13T07:35:54;5.77;;;1.53;;
13461;SDS011;6803;45.264;5.468;2023-07-13T07:38:26;3.20;;;1.50;;
13461;SDS011;6803;45.264;5.468;2023-07-13T07:40:57;2.37;;;1.30;;
13461;SDS011;6803;45.264;5.468;2023-07-13T07:43:31;1.85;;;1.25;;
13461;SDS011;6803;45.264;5.468;2023-07-13T07:46:02;4.23;;;1.30;;
13461;SDS011;6803;45.264;5.468;2023-07-13T07:48:33;3.33;;;1.27;;
13461;SDS011;6803;45.264;5.468;2023-07-13T07:51:04;1.67;;;1.33;;
13461;SDS011;6803;45.264;5.468;2023-07-13T07:53:34;1.60;;;1.30;;
13461;SDS011;6803;45.264;5.468;2023-07-13T07:56:05;2.23;;;1.37;;
13461;SDS011;6803;45.264;5.468;2023-07-13T07:58:39;2.20;;;1.30;;
13461;SDS011;6803;45.264;5.468;2023-07-13T08:01:11;4.08;;;1.65;;
13461;SDS011;6803;45.264;5.468;2023-07-13T08:03:45;3.97;;;1.60;;
13461;SDS011;6803;45.264;5.468;2023-07-13T08:06:18;1.90;;;1.20;;
13461;SDS011;6803;45.264;5.468;2023-07-13T08:08:51;2.00;;;1.10;;
13461;SDS011;6803;45.264;5.468;2023-07-13T08:11:22;1.50;;;1.10;;
13461;SDS011;6803;45.264;5.468;2023-07-13T08:13:54;2.20;;;1.40;;
13461;SDS011;6803;45.264;5.468;2023-07-13T08:16:25;1.67;;;1.10;;
13461;SDS011;6803;45.264;5.468;2023-07-13T08:18:56;1.10;;;1.10;;
13461;SDS011;6803;45.264;5.468;2023-07-13T08:21:27;1.50;;;1.17;;
13461;SDS011;6803;45.264;5.468;2023-07-13T08:23:58;1.33;;;1.20;;
13461;SDS011;6803;45.264;5.468;2023-07-13T08:26:29;3.17;;;1.20;;
13461;SDS011;6803;45.264;5.468;2023-07-13T08:29:00;2.07;;;1.10;;
13461;SDS011;6803;45.264;5.468;2023-07-13T08:31:31;1.20;;;1.10;;
13461;SDS011;6803;45.264;5.468;2023-07-13T08:34:02;2.52;;;1.40;;
13461;SDS011;6803;45.264;5.468;2023-07-13T08:36:33;3.70;;;1.40;;
13461;SDS011;6803;45.264;5.468;2023-07-13T08:39:04;1.73;;;1.20;;
13461;SDS011;6803;45.264;5.468;2023-07-13T08:41:35;2.10;;;1.30;;
13461;SDS011;6803;45.264;5.468;2023-07-13T08:44:07;2.75;;;1.22;;
13461;SDS011;6803;45.264;5.468;2023-07-13T08:46:48;1.60;;;1.10;;
13461;SDS011;6803;45.264;5.468;2023-07-13T08:49:22;1.40;;;1.03;;
13461;SDS011;6803;45.264;5.468;2023-07-13T08:51:57;3.47;;;1.22;;
13461;SDS011;6803;45.264;5.468;2023-07-13T08:54:38;3.60;;;1.57;;
13461;SDS011;6803;45.264;5.468;2023-07-13T08:57:03;3.63;;;1.40;;
13461;SDS011;6803;45.264;5.468;2023-07-13T08:59:38;2.63;;;1.00;;
13461;SDS011;6803;45.264;5.468;2023-07-13T09:02:16;3.63;;;1.20;;
13461;SDS011;6803;45.264;5.468;2023-07-13T09:04:53;2.20;;;1.00;;
13461;SDS011;6803;45.264;5.468;2023-07-13T09:07:29;2.17;;;1.20;;
13461;SDS011;6803;45.264;5.468;2023-07-13T09:10:11;7.00;;;1.30;;
13461;SDS011;6803;45.264;5.468;2023-07-13T09:12:51;2.47;;;1.10;;
13461;SDS011;6803;45.264;5.468;2023-07-13T09:15:29;5.03;;;1.00;;
13461;SDS011;6803;45.264;5.468;2023-07-13T09:18:02;3.20;;;1.30;;
13461;SDS011;6803;45.264;5.468;2023-07-13T09:20:37;3.13;;;1.73;;
13461;SDS011;6803;45.264;5.468;2023-07-13T09:23:11;1.80;;;1.12;;
13461;SDS011;6803;45.264;5.468;2023-07-13T09:25:46;4.22;;;1.35;;
13461;SDS011;6803;45.264;5.468;2023-07-13T09:28:22;1.25;;;1.00;;
13461;SDS011;6803;45.264;5.468;2023-07-13T09:30:56;2.60;;;0.90;;
13461;SDS011;6803;45.264;5.468;2023-07-13T09:33:30;6.60;;;1.35;;
13461;SDS011;6803;45.264;5.468;2023-07-13T09:36:05;2.58;;;1.10;;
13461;SDS011;6803;45.264;5.468;2023-07-13T09:38:48;3.90;;;1.07;;
13461;SDS011;6803;45.264;5.468;2023-07-13T09:41:23;4.58;;;1.10;;
13461;SDS011;6803;45.264;5.468;2023-07-13T09:44:06;3.02;;;1.12;;
13461;SDS011;6803;45.264;5.468;2023-07-13T09:49:23;2.00;;;1.20;;
13461;SDS011;6803;45.264;5.468;2023-07-13T09:51:58;1.40;;;1.20;;
13461;SDS011;6803;45.264;5.468;2023-07-13T09:54:32;4.60;;;1.30;;
13461;SDS011;6803;45.264;5.468;2023-07-13T09:57:12;7.25;;;1.20;;
13461;SDS011;6803;45.264;5.468;2023-07-13T09:59:44;6.15;;;1.32;;
13461;SDS011;6803;45.264;5.468;2023-07-13T10:02:24;5.50;;;1.30;;
13461;SDS011;6803;45.264;5.468;2023-07-13T10:04:58;2.85;;;1.00;;
13461;SDS011;6803;45.264;5.468;2023-07-13T10:07:31;3.75;;;1.12;;
13461;SDS011;6803;45.264;5.468;2023-07-13T10:10:12;2.45;;;1.17;;
13461;SDS011;6803;45.264;5.468;2023-07-13T10:12:42;2.70;;;1.07;;
13461;SDS011;6803;45.264;5.468;2023-07-13T10:15:14;1.98;;;1.12;;
13461;SDS011;6803;45.264;5.468;2023-07-13T10:17:50;3.45;;;1.42;;
13461;SDS011;6803;45.264;5.468;2023-07-13T10:20:23;3.85;;;1.25;;
13461;SDS011;6803;45.264;5.468;2023-07-13T10:22:59;1.80;;;1.05;;
13461;SDS011;6803;45.264;5.468;2023-07-13T10:25:31;3.87;;;1.10;;
13461;SDS011;6803;45.264;5.468;2023-07-13T10:28:05;1.20;;;1.10;;
13461;SDS011;6803;45.264;5.468;2023-07-13T10:30:38;3.45;;;1.10;;
13461;SDS011;6803;45.264;5.468;2023-07-13T10:33:12;5.22;;;1.15;;
13461;SDS011;6803;45.264;5.468;2023-07-13T10:35:43;2.22;;;1.25;;
13461;SDS011;6803;45.264;5.468;2023-07-13T10:38:18;2.42;;;1.05;;
13461;SDS011;6803;45.264;5.468;2023-07-13T10:40:53;2.92;;;1.10;;
13461;SDS011;6803;45.264;5.468;2023-07-13T10:43:25;2.40;;;1.22;;
13461;SDS011;6803;45.264;5.468;2023-07-13T10:45:59;4.33;;;1.17;;
13461;SDS011;6803;45.264;5.468;2023-07-13T10:48:31;2.50;;;1.20;;
13461;SDS011;6803;45.264;5.468;2023-07-13T10:51:05;2.58;;;1.30;;
13461;SDS011;6803;45.264;5.468;2023-07-13T10:53:37;2.27;;;1.10;;
13461;SDS011;6803;45.264;5.468;2023-07-13T10:56:26;3.67;;;1.22;;
13461;SDS011;6803;45.264;5.468;2023-07-13T10:59:02;4.87;;;1.50;;
13461;SDS011;6803;45.264;5.468;2023-07-13T11:01:40;4.00;;;0.90;;
13461;SDS011;6803;45.264;5.468;2023-07-13T11:04:25;3.72;;;1.25;;
13461;SDS011;6803;45.264;5.468;2023-07-13T11:06:59;3.77;;;1.10;;
13461;SDS011;6803;45.264;5.468;2023-07-13T11:09:37;5.33;;;1.07;;
13461;SDS011;6803;45.264;5.468;2023-07-13T11:12:26;4.45;;;1.20;;
13461;SDS011;6803;45.264;5.468;2023-07-13T11:15:09;1.77;;;1.00;;
13461;SDS011;6803;45.264;5.468;2023-07-13T11:17:50;2.77;;;0.95;;
13461;SDS011;6803;45.264;5.468;2023-07-13T11:20:36;3.10;;;1.10;;
13461;SDS011;6803;45.264;5.468;2023-07-13T11:23:19;0.95;;;0.80;;
13461;SDS011;6803;45.264;5.468;2023-07-13T11:25:59;3.10;;;1.02;;
13461;SDS011;6803;45.264;5.468;2023-07-13T11:28:31;3.42;;;1.17;;
13461;SDS011;6803;45.264;5.468;2023-07-13T11:31:03;1.55;;;0.90;;
13461;SDS011;6803;45.264;5.468;2023-07-13T11:34:06;3.80;;;0.90;;
13461;SDS011;6803;45.264;5.468;2023-07-13T11:36:46;2.42;;;0.93;;
13461;SDS011;6803;45.264;5.468;2023-07-13T11:39:19;1.77;;;0.90;;
13461;SDS011;6803;45.264;5.468;2023-07-13T11:41:59;2.22;;;0.98;;
13461;SDS011;6803;45.264;5.468;2023-07-13T11:44:33;1.32;;;0.68;;
13461;SDS011;6803;45.264;5.468;2023-07-13T11:47:09;1.72;;;1.07;;
13461;SDS011;6803;45.264;5.468;2023-07-13T11:49:42;1.40;;;1.00;;
13461;SDS011;6803;45.264;5.468;2023-07-13T11:52:15;2.08;;;0.72;;
13461;SDS011;6803;45.264;5.468;2023-07-13T11:54:48;2.90;;;0.80;;
13461;SDS011;6803;45.264;5.468;2023-07-13T11:57:23;1.55;;;0.90;;
13461;SDS011;6803;45.264;5.468;2023-07-13T11:59:57;0.85;;;0.70;;
13461;SDS011;6803;45.264;5.468;2023-07-13T12:02:30;4.33;;;0.95;;
13461;SDS011;6803;45.264;5.468;2023-07-13T12:05:03;2.15;;;0.57;;
13461;SDS011;6803;45.264;5.468;2023-07-13T12:07:37;2.62;;;0.70;;
13461;SDS011;6803;45.264;5.468;2023-07-13T12:10:15;1.40;;;0.88;;
13461;SDS011;6803;45.264;5.468;2023-07-13T12:12:50;1.77;;;0.68;;
13461;SDS011;6803;45.264;5.468;2023-07-13T12:15:22;1.12;;;0.80;;
13461;SDS011;6803;45.264;5.468;2023-07-13T12:17:57;1.87;;;0.80;;
13461;SDS011;6803;45.264;5.468;2023-07-13T12:20:29;1.47;;;0.82;;
13461;SDS011;6803;45.264;5.468;2023-07-13T12:23:13;1.62;;;0.80;;
13461;SDS011;6803;45.264;5.468;2023-07-13T12:25:46;1.85;;;1.00;;
13461;SDS011;6803;45.264;5.468;2023-07-13T12:28:21;3.60;;;1.02;;
13461;SDS011;6803;45.264;5.468;2023-07-13T12:30:54;2.77;;;0.95;;
13461;SDS011;6803;45.264;5.468;2023-07-13T12:33:29;1.80;;;0.85;;
13461;SDS011;6803;45.264;5.468;2023-07-13T12:36:02;2.25;;;0.78;;
13461;SDS011;6803;45.264;5.468;2023-07-13T12:38:36;1.47;;;0.85;;
13461;SDS011;6803;45.264;5.468;2023-07-13T12:41:08;1.30;;;0.80;;
13461;SDS011;6803;45.264;5.468;2023-07-13T12:43:39;2.85;;;1.10;;
13461;SDS011;6803;45.264;5.468;2023-07-13T12:46:16;2.35;;;0.88;;
13461;SDS011;6803;45.264;5.468;2023-07-13T12:48:49;3.62;;;1.00;;
13461;SDS011;6803;45.264;5.468;2023-07-13T12:51:24;8.45;;;1.27;;
13461;SDS011;6803;45.264;5.468;2023-07-13T12:53:57;2.40;;;0.82;;
13461;SDS011;6803;45.264;5.468;2023-07-13T12:56:30;3.15;;;0.90;;
13461;SDS011;6803;45.264;5.468;2023-07-13T12:59:03;1.95;;;1.00;;
13461;SDS011;6803;45.264;5.468;2023-07-13T13:01:36;2.47;;;1.02;;
13461;SDS011;6803;45.264;5.468;2023-07-13T13:04:08;2.40;;;0.70;;
13461;SDS011;6803;45.264;5.468;2023-07-13T13:06:41;1.62;;;0.90;;
13461;SDS011;6803;45.264;5.468;2023-07-13T13:11:49;4.25;;;0.85;;
13461;SDS011;6803;45.264;5.468;2023-07-13T13:14:20;1.42;;;0.85;;
13461;SDS011;6803;45.264;5.468;2023-07-13T13:16:51;2.75;;;0.80;;
13461;SDS011;6803;45.264;5.468;2023-07-13T13:19:24;6.35;;;2.08;;
13461;SDS011;6803;45.264;5.468;2023-07-13T13:21:57;0.72;;;0.65;;
13461;SDS011;6803;45.264;5.468;2023-07-13T13:24:28;2.67;;;1.00;;
13461;SDS011;6803;45.264;5.468;2023-07-13T13:26:59;6.00;;;1.80;;
13461;SDS011;6803;45.264;5.468;2023-07-13T13:29:31;2.25;;;0.80;;
13461;SDS011;6803;45.264;5.468;2023-07-13T13:32:09;1.27;;;0.88;;
13461;SDS011;6803;45.264;5.468;2023-07-13T13:34:41;2.02;;;0.90;;
13461;SDS011;6803;45.264;5.468;2023-07-13T13:37:17;2.20;;;1.00;;
13461;SDS011;6803;45.264;5.468;2023-07-13T13:39:49;1.35;;;0.75;;
13461;SDS011;6803;45.264;5.468;2023-07-13T13:42:23;2.30;;;1.17;;
13461;SDS011;6803;45.264;5.468;2023-07-13T13:44:55;9.43;;;3.22;;
13461;SDS011;6803;45.264;5.468;2023-07-13T13:47:29;13.20;;;1.20;;
13461;SDS011;6803;45.264;5.468;2023-07-13T13:50:07;3.87;;;0.98;;
13461;SDS011;6803;45.264;5.468;2023-07-13T13:52:48;3.50;;;1.98;;
13461;SDS011;6803;45.264;5.468;2023-07-13T13:55:20;2.58;;;1.00;;
13461;SDS011;6803;45.264;5.468;2023-07-13T13:57:52;2.92;;;0.82;;
13461;SDS011;6803;45.264;5.468;2023-07-13T14:00:23;4.55;;;0.90;;
13461;SDS011;6803;45.264;5.468;2023-07-13T14:02:54;3.10;;;0.90;;
13461;SDS011;6803;45.264;5.468;2023-07-13T14:05:25;1.45;;;0.60;;
13461;SDS011;6803;45.264;5.468;2023-07-13T14:07:58;1.30;;;0.65;;
13461;SDS011;6803;45.264;5.468;2023-07-13T14:10:29;10.43;;;3.30;;
13461;SDS011;6803;45.264;5.468;2023-07-13T14:13:00;2.02;;;1.00;;
13461;SDS011;6803;45.264;5.468;2023-07-13T14:15:33;1.02;;;0.82;;
13461;SDS011;6803;45.264;5.468;2023-07-13T14:18:04;4.10;;;2.00;;
13461;SDS011;6803;45.264;5.468;2023-07-13T14:20:39;1.45;;;0.80;;
13461;SDS011;6803;45.264;5.468;2023-07-13T14:23:12;3.08;;;1.05;;
13461;SDS011;6803;45.264;5.468;2023-07-13T14:25:51;1.62;;;0.70;;
13461;SDS011;6803;45.264;5.468;2023-07-13T14:28:22;1.47;;;0.75;;
13461;SDS011;6803;45.264;5.468;2023-07-13T14:30:54;1.92;;;1.20;;
13461;SDS011;6803;45.264;5.468;2023-07-13T14:33:25;3.25;;;0.90;;
13461;SDS011;6803;45.264;5.468;2023-07-13T14:35:56;10.03;;;3.35;;
13461;SDS011;6803;45.264;5.468;2023-07-13T14:38:27;1.00;;;0.78;;
13461;SDS011;6803;45.264;5.468;2023-07-13T14:40:58;2.50;;;1.15;;
13461;SDS011;6803;45.264;5.468;2023-07-13T14:43:29;2.02;;;1.35;;
13461;SDS011;6803;45.264;5.468;2023-07-13T14:46:00;0.85;;;0.70;;
13461;SDS011;6803;45.264;5.468;2023-07-13T14:48:32;6.50;;;0.90;;
13461;SDS011;6803;45.264;5.468;2023-07-13T14:51:04;2.90;;;0.98;;
13461;SDS011;6803;45.264;5.468;2023-07-13T14:53:38;4.35;;;1.00;;
13461;SDS011;6803;45.264;5.468;2023-07-13T14:56:10;2.67;;;1.07;;
13461;SDS011;6803;45.264;5.468;2023-07-13T14:58:43;3.58;;;0.72;;
13461;SDS011;6803;45.264;5.468;2023-07-13T15:01:14;6.20;;;2.30;;
13461;SDS011;6803;45.264;5.468;2023-07-13T15:03:46;1.30;;;0.75;;
13461;SDS011;6803;45.264;5.468;2023-07-13T15:06:19;1.65;;;0.90;;
13461;SDS011;6803;45.264;5.468;2023-07-13T15:08:50;2.12;;;1.30;;
13461;SDS011;6803;45.264;5.468;2023-07-13T15:11:21;1.65;;;0.88;;
13461;SDS011;6803;45.264;5.468;2023-07-13T15:13:53;4.15;;;0.88;;
13461;SDS011;6803;45.264;5.468;2023-07-13T15:16:24;3.55;;;1.05;;
13461;SDS011;6803;45.264;5.468;2023-07-13T15:18:56;1.77;;;0.78;;
13461;SDS011;6803;45.264;5.468;2023-07-13T15:21:27;1.45;;;0.75;;
13461;SDS011;6803;45.264;5.468;2023-07-13T15:24:00;2.27;;;1.00;;
13461;SDS011;6803;45.264;5.468;2023-07-13T15:26:32;8.38;;;2.72;;
13461;SDS011;6803;45.264;5.468;2023-07-13T15:29:01;3.55;;;0.90;;
13461;SDS011;6803;45.264;5.468;2023-07-13T15:31:32;1.30;;;0.90;;
13461;SDS011;6803;45.264;5.468;2023-07-13T15:34:09;2.65;;;0.93;;
13461;SDS011;6803;45.264;5.468;2023-07-13T15:36:45;2.65;;;0.88;;
13461;SDS011;6803;45.264;5.468;2023-07-13T15:39:15;0.95;;;0.70;;